createdAt,value
2019-03-15T00:03:33.698Z,5.03
2019-03-15T00:07:44.199Z,4.77
2019-03-15T00:11:55.345Z,4.53
2019-03-15T00:16:06.494Z,4.53
2019-03-15T00:20:17.538Z,5.30
2019-03-15T00:24:28.136Z,4.80
2019-03-15T00:28:39.333Z,4.70
2019-03-15T00:32:50.339Z,4.70
2019-03-15T00:37:02.099Z,4.73
2019-03-15T00:41:12.547Z,5.37
2019-03-15T00:45:23.042Z,5.03
2019-03-15T00:49:33.432Z,4.90
2019-03-15T00:53:44.583Z,5.00
2019-03-15T00:57:55.721Z,5.03
2019-03-15T01:02:07.590Z,5.10
2019-03-15T01:06:18.972Z,4.57
2019-03-15T01:10:29.969Z,5.10
2019-03-15T01:14:40.292Z,5.37
2019-03-15T01:18:50.617Z,4.93
2019-03-15T01:23:00.982Z,4.03
2019-03-15T01:27:11.528Z,4.83
2019-03-15T01:31:22.498Z,4.83
2019-03-15T01:35:34.071Z,5.23
2019-03-15T01:39:44.611Z,5.07
2019-03-15T01:43:55.921Z,5.37
2019-03-15T01:48:07.254Z,4.97
2019-03-15T01:52:17.903Z,4.97
2019-03-15T01:56:28.343Z,4.70
2019-03-15T02:00:39.624Z,4.30
2019-03-15T02:04:50.192Z,5.27
2019-03-15T02:09:01.203Z,4.73
2019-03-15T02:13:12.823Z,4.80
2019-03-15T02:17:23.425Z,4.77
2019-03-15T02:21:33.746Z,5.27
2019-03-15T02:25:44.248Z,5.07
2019-03-15T02:29:54.751Z,5.10
2019-03-15T02:34:05.210Z,4.47
2019-03-15T02:38:15.529Z,5.07
2019-03-15T02:42:26.412Z,5.10
2019-03-15T02:46:37.022Z,4.80
2019-03-15T02:50:47.498Z,4.60
2019-03-15T02:54:57.860Z,5.30
2019-03-15T02:59:08.273Z,4.40
2019-03-15T03:03:18.966Z,4.57
2019-03-15T03:07:29.943Z,4.07
2019-03-15T03:11:40.238Z,5.33
2019-03-15T03:15:51.936Z,5.70
2019-03-15T03:20:03.365Z,5.10
2019-03-15T03:24:16.641Z,5.37
2019-03-15T03:28:27.991Z,4.93
2019-03-15T03:32:39.605Z,5.27
2019-03-15T03:36:52.149Z,4.60
2019-03-15T03:41:03.301Z,5.23
2019-03-15T03:45:13.949Z,4.50
2019-03-15T03:49:27.434Z,4.73
2019-03-15T03:53:38.238Z,4.47
2019-03-15T03:57:51.033Z,5.20
2019-03-15T04:02:01.706Z,4.30
2019-03-15T04:06:13.116Z,4.70
2019-03-15T04:10:23.800Z,5.70
2019-03-15T04:14:34.604Z,4.20
2019-03-15T04:18:44.818Z,4.53
2019-03-15T04:22:55.583Z,5.13
2019-03-15T04:27:06.098Z,4.43
2019-03-15T04:31:16.539Z,4.80
2019-03-15T04:35:26.608Z,5.17
2019-03-15T04:39:37.122Z,4.40
2019-03-15T04:43:47.939Z,4.70
2019-03-15T04:47:58.720Z,4.83
2019-03-15T04:52:10.048Z,5.07
2019-03-15T04:56:21.328Z,4.97
2019-03-15T05:00:32.889Z,4.83
2019-03-15T05:04:43.626Z,4.07
2019-03-15T05:08:53.991Z,4.30
2019-03-15T05:13:04.477Z,4.63
2019-03-15T05:37:38.483Z,5.13
2019-03-15T05:41:48.985Z,4.10
2019-03-15T05:45:59.483Z,3.73
2019-03-15T05:50:10.959Z,4.70
2019-03-15T05:54:21.061Z,3.77
2019-03-15T05:58:31.404Z,4.40
2019-03-15T06:02:41.663Z,4.50
2019-03-15T06:06:51.559Z,4.40
2019-03-15T06:11:02.296Z,5.57
2019-03-15T06:15:12.830Z,4.97
2019-03-15T06:19:23.130Z,4.43
2019-03-15T06:23:33.439Z,4.20
2019-03-15T06:27:44.116Z,4.50
2019-03-15T06:31:54.781Z,4.20
2019-03-15T06:36:04.950Z,5.10
2019-03-15T06:40:15.198Z,4.80
2019-03-15T06:44:27.141Z,5.03
2019-03-15T06:48:37.772Z,4.93
2019-03-15T06:52:48.123Z,5.10
2019-03-15T06:56:58.548Z,4.47
2019-03-15T07:01:09.806Z,4.43
2019-03-15T07:05:20.983Z,4.83
2019-03-15T07:09:31.123Z,4.50
2019-03-15T07:13:40.944Z,4.63
2019-03-15T07:17:51.745Z,4.63
2019-03-15T07:22:01.948Z,4.60
2019-03-15T07:26:12.456Z,4.80
2019-03-15T07:30:22.519Z,4.60
2019-03-15T07:34:33.131Z,4.40
2019-03-15T07:38:43.427Z,4.40
2019-03-15T07:42:54.020Z,4.93
2019-03-15T07:47:04.827Z,4.80
2019-03-15T07:51:15.259Z,4.57
2019-03-15T07:55:25.537Z,4.70
2019-03-15T07:59:36.356Z,4.30
2019-03-15T08:03:46.416Z,5.40
2019-03-15T08:07:57.142Z,4.00
2019-03-15T08:12:07.531Z,4.20
2019-03-15T08:16:18.207Z,5.07
2019-03-15T08:20:28.615Z,4.30
2019-03-15T08:24:50.941Z,5.00
2019-03-15T08:28:50.714Z,4.80
2019-03-15T08:33:10.241Z,4.40
2019-03-15T08:37:13.502Z,4.53
2019-03-15T08:41:23.942Z,5.13
2019-03-15T08:45:33.925Z,4.73
2019-03-15T08:49:44.673Z,3.90
2019-03-15T08:53:54.970Z,4.70
2019-03-15T08:58:13.847Z,4.40
2019-03-15T09:02:16.932Z,4.07
2019-03-15T09:06:27.440Z,4.63
2019-03-15T09:10:37.773Z,4.70
2019-03-15T09:14:48.446Z,4.30
2019-03-15T09:18:58.824Z,4.87
2019-03-15T09:23:09.807Z,5.27
2019-03-15T09:27:20.286Z,3.90
2019-03-15T09:31:46.434Z,5.67
2019-03-15T09:35:43.719Z,4.93
2019-03-15T09:39:54.504Z,4.70
2019-03-15T09:44:04.397Z,4.87
2019-03-15T09:48:14.626Z,4.97
2019-03-15T09:52:25.024Z,5.07
2019-03-15T09:56:35.726Z,4.93
2019-03-15T10:00:46.378Z,4.30
2019-03-15T10:05:09.766Z,4.90
2019-03-15T10:09:10.883Z,4.73
2019-03-15T10:13:22.205Z,8.47
2019-03-15T10:17:32.760Z,29.73
2019-03-15T10:21:43.759Z,14.07
2019-03-15T10:25:54.358Z,12.33
2019-03-15T10:30:05.543Z,12.67
2019-03-15T10:34:15.718Z,14.10
2019-03-15T10:38:26.849Z,15.20
2019-03-15T10:42:37.801Z,13.60
2019-03-15T10:46:48.221Z,14.40
2019-03-15T10:50:58.702Z,14.70
2019-03-15T10:55:09.695Z,13.53
2019-03-15T10:59:19.833Z,12.87
2019-03-15T11:03:30.132Z,12.77
2019-03-15T11:07:40.817Z,12.77
2019-03-15T11:11:51.486Z,10.53
2019-03-15T11:16:01.805Z,10.73
2019-03-15T11:20:12.795Z,10.57
2019-03-15T11:24:23.276Z,8.73
2019-03-15T11:28:35.135Z,9.20
2019-03-15T11:32:45.393Z,8.03
2019-03-15T11:36:58.607Z,9.17
2019-03-15T11:41:08.125Z,8.80
2019-03-15T11:45:18.477Z,8.77
2019-03-15T11:49:29.248Z,9.00
2019-03-15T11:53:39.756Z,7.67
2019-03-15T11:57:50.431Z,8.07
2019-03-15T12:02:04.346Z,7.80
2019-03-15T12:06:13.765Z,7.70
2019-03-15T12:10:24.745Z,8.00
2019-03-15T12:14:40.827Z,8.30
2019-03-15T12:18:48.200Z,8.10
2019-03-15T12:22:58.747Z,7.50
2019-03-15T12:27:09.778Z,8.07
2019-03-15T12:31:20.415Z,7.43
2019-03-15T12:35:31.127Z,7.13
2019-03-15T12:39:42.369Z,7.43
2019-03-15T12:43:53.760Z,7.67
2019-03-15T12:48:04.355Z,7.20
2019-03-15T12:52:15.066Z,7.97
2019-03-15T12:56:25.675Z,7.83
2019-03-15T13:00:36.256Z,6.80
2019-03-15T13:04:46.736Z,6.10
2019-03-15T13:08:57.469Z,7.10
2019-03-15T13:13:07.959Z,6.03
2019-03-15T13:17:18.823Z,6.77
2019-03-15T13:21:29.594Z,6.50
2019-03-15T13:25:40.355Z,6.73
2019-03-15T13:29:50.828Z,8.17
2019-03-15T13:34:02.136Z,5.93
2019-03-15T13:38:12.350Z,6.03
2019-03-15T13:42:23.182Z,5.60
2019-03-15T13:46:33.839Z,5.50
2019-03-15T13:50:44.714Z,5.50
2019-03-15T13:54:55.295Z,6.40
2019-03-15T13:59:05.991Z,6.20
2019-03-15T14:03:16.556Z,6.00
2019-03-15T14:07:27.449Z,5.80
2019-03-15T14:11:38.055Z,6.00
2019-03-15T14:15:48.852Z,6.50
2019-03-15T14:19:59.793Z,5.63
2019-03-15T14:24:10.640Z,6.73
2019-03-15T14:28:21.680Z,6.93
2019-03-15T14:32:32.716Z,7.60
2019-03-15T14:36:43.265Z,6.77
2019-03-15T14:40:55.694Z,6.90
2019-03-15T14:45:07.101Z,6.80
2019-03-15T14:49:17.839Z,5.67
2019-03-15T14:53:28.259Z,6.80
2019-03-15T14:57:51.089Z,6.10
2019-03-15T15:01:51.924Z,6.27
2019-03-15T15:06:02.673Z,7.37
2019-03-15T15:10:13.710Z,8.53
2019-03-15T15:14:25.187Z,7.37
2019-03-15T15:18:35.534Z,6.93
2019-03-15T15:22:46.803Z,7.37
2019-03-15T15:26:57.610Z,6.90
2019-03-15T15:31:08.569Z,8.00
2019-03-15T15:35:19.185Z,9.37
2019-03-15T15:39:30.204Z,8.37
2019-03-15T15:43:41.090Z,8.40
2019-03-15T15:47:52.449Z,7.90
2019-03-15T15:52:02.855Z,7.87
2019-03-15T15:56:15.315Z,9.27
2019-03-15T16:00:26.216Z,8.30
2019-03-15T16:04:37.027Z,8.10
2019-03-15T16:08:47.396Z,8.67
2019-03-15T16:12:58.016Z,8.40
2019-03-15T16:17:08.341Z,12.10
2019-03-15T16:21:18.916Z,8.23
2019-03-15T16:25:30.327Z,9.27
2019-03-15T16:29:41.098Z,8.73
2019-03-15T16:33:51.511Z,6.80
2019-03-15T16:38:02.493Z,7.10
2019-03-15T16:42:13.825Z,7.20
2019-03-15T16:46:26.252Z,8.00
2019-03-15T16:50:37.243Z,6.40
2019-03-15T16:54:49.021Z,7.27
2019-03-15T16:58:59.849Z,6.90
2019-03-15T17:03:10.879Z,6.60
2019-03-15T17:07:21.617Z,9.50
2019-03-15T17:11:32.489Z,8.57
2019-03-15T17:15:43.453Z,9.30
2019-03-15T17:19:55.203Z,9.67
2019-03-15T17:24:06.571Z,9.20
2019-03-15T17:28:17.590Z,9.87
2019-03-15T17:32:27.928Z,9.00
2019-03-15T17:36:40.048Z,7.53
2019-03-15T17:40:50.454Z,8.07
2019-03-15T17:45:01.620Z,7.53
2019-03-15T17:49:12.538Z,8.70
2019-03-15T17:53:24.622Z,7.53
2019-03-15T17:57:36.028Z,8.67
2019-03-15T18:01:47.725Z,7.17
2019-03-15T18:05:58.546Z,7.33
2019-03-15T18:10:09.895Z,7.23
2019-03-15T18:14:20.233Z,6.43
2019-03-15T18:18:31.119Z,6.77
2019-03-15T18:22:42.401Z,6.47
2019-03-15T18:26:55.577Z,7.70
2019-03-15T18:31:07.638Z,6.60
2019-03-15T18:35:32.401Z,9.03
2019-03-15T18:39:31.052Z,8.13
2019-03-15T18:43:42.218Z,8.63
2019-03-15T18:47:53.438Z,8.23
2019-03-15T18:52:04.863Z,8.70
2019-03-15T18:56:15.296Z,9.40
2019-03-15T19:00:26.493Z,7.60
2019-03-15T19:04:37.603Z,7.90
2019-03-15T19:08:48.476Z,8.50
2019-03-15T19:12:59.486Z,8.00
2019-03-15T19:17:10.118Z,8.83
2019-03-15T19:21:22.325Z,9.07
2019-03-15T19:25:33.519Z,8.07
2019-03-15T19:29:53.497Z,9.30
2019-03-15T19:33:58.634Z,7.70
2019-03-15T19:38:09.183Z,8.10
2019-03-15T19:42:20.658Z,7.20
2019-03-15T19:46:31.895Z,8.27
2019-03-15T19:50:42.910Z,7.73
2019-03-15T19:55:00.487Z,7.27
2019-03-15T19:59:07.014Z,7.63
2019-03-15T20:03:18.786Z,8.43
2019-03-15T20:07:30.090Z,6.87
2019-03-15T20:11:42.238Z,7.50
2019-03-15T20:15:53.129Z,6.20
2019-03-15T20:20:03.793Z,6.87
2019-03-15T20:24:15.807Z,6.73
2019-03-15T20:28:26.995Z,6.13
2019-03-15T20:32:39.116Z,6.37
2019-03-15T20:36:50.096Z,6.40
2019-03-15T20:41:00.660Z,6.17
2019-03-15T20:45:13.581Z,6.67
2019-03-15T20:49:25.025Z,6.63
2019-03-15T20:53:35.900Z,6.70
2019-03-15T20:57:47.802Z,5.63
2019-03-15T21:01:59.145Z,6.27
2019-03-15T21:06:10.468Z,5.90
2019-03-15T21:10:22.133Z,5.77
2019-03-15T21:14:34.104Z,6.40
2019-03-15T21:18:49.589Z,5.33
2019-03-15T21:23:01.485Z,6.20
2019-03-15T21:27:13.131Z,5.63
2019-03-15T21:31:25.082Z,4.53
2019-03-15T21:35:37.198Z,5.50
2019-03-15T21:39:48.211Z,5.43
2019-03-15T21:43:59.318Z,4.60
2019-03-15T21:48:10.786Z,5.10
2019-03-15T21:52:22.640Z,4.77
2019-03-15T21:56:34.952Z,4.23
2019-03-15T22:01:01.264Z,4.40
2019-03-15T22:05:01.561Z,3.47
2019-03-15T22:09:13.038Z,4.30
2019-03-15T22:13:23.718Z,4.30
2019-03-15T22:17:34.964Z,4.17
2019-03-15T22:21:45.973Z,4.70
2019-03-15T22:25:56.747Z,4.23
2019-03-15T22:30:07.517Z,4.50
2019-03-15T22:34:18.214Z,3.70
2019-03-15T22:38:29.677Z,4.37
2019-03-15T22:42:40.435Z,4.10
2019-03-15T22:46:52.294Z,4.20
2019-03-15T22:51:02.656Z,3.27
2019-03-15T22:55:15.040Z,3.37
2019-03-15T22:59:32.121Z,2.93
2019-03-15T23:03:43.343Z,3.60
2019-03-15T23:07:53.689Z,3.60
2019-03-15T23:12:04.963Z,2.67
2019-03-15T23:16:15.666Z,3.30
2019-03-15T23:20:26.550Z,3.50
2019-03-15T23:24:37.492Z,2.53
2019-03-15T23:28:48.132Z,2.07
2019-03-15T23:32:59.148Z,2.53
2019-03-15T23:37:11.699Z,2.40
2019-03-15T23:41:22.837Z,2.90
2019-03-15T23:45:34.181Z,2.60
2019-03-15T23:49:45.425Z,2.83
2019-03-15T23:53:56.819Z,1.90
2019-03-15T23:58:07.334Z,1.87
